Time;durP1;ratioP1;P1;durP2;ratioP2;P2;SDS_P1;SDS_P2;PMS_P1;PMS_P2;Temp;Humidity;BMP_temperature;BMP_pressure;BME280_temperature;BME280_humidity;BME280_pressure;Samples;Min_cycle;Max_cycle;Signal;HPM_P1;HPM_P2
2022/10/26 00:01:26;;;;;;;;;;;14.60;89.90;;;;;;5051948;28;19990;-88
2022/10/26 00:03:53;;;;;;;;;;;14.60;89.40;;;;;;5053163;28;19967;-88
2022/10/26 00:06:20;;;;;;;;;;;14.60;89.30;;;;;;5053208;28;19940;-87
2022/10/26 00:08:46;;;;;;;;;;;14.60;88.80;;;;;;5053111;28;19997;-88
2022/10/26 00:11:11;;;;;;;;;;;14.60;88.80;;;;;;5072463;28;20369;-88
2022/10/26 00:13:37;;;;;;;;;;;14.70;88.60;;;;;;5073153;28;20045;-88
2022/10/26 00:16:09;;;;;;;;;;;14.70;88.90;;;;;;5073097;28;19978;-87
2022/10/26 00:18:34;;;;;;;;;;;14.60;89.00;;;;;;5073376;28;19949;-87
2022/10/26 00:21:04;;;;;;;;;;;14.50;89.10;;;;;;5054662;28;19945;-87
2022/10/26 00:23:30;;;;;;;;;;;14.50;89.50;;;;;;5053023;28;20435;-88
2022/10/26 00:25:56;;;;;;;;;;;14.50;89.40;;;;;;5053035;28;19938;-88
2022/10/26 00:28:22;;;;;;;;;;;14.50;89.50;;;;;;5052992;28;19967;-87
2022/10/26 00:30:47;;;;;;;;;;;14.50;89.50;;;;;;5068939;28;20061;-87
2022/10/26 00:33:12;;;;;;;;;;;14.60;89.60;;;;;;5072980;28;19939;-87
2022/10/26 00:35:38;;;;;;;;;;;14.60;89.50;;;;;;5073005;28;19950;-87
2022/10/26 00:38:04;;;;;;;;;;;14.60;89.40;;;;;;5072914;28;19953;-87
2022/10/26 00:40:29;;;;;;;;;;;14.50;89.30;;;;;;5058977;28;20030;-87
2022/10/26 00:42:55;;;;;;;;;;;14.50;89.60;;;;;;5052848;28;19989;-87
2022/10/26 00:45:25;;;;;;;;;;;14.60;89.80;;;;;;5051529;28;19946;-87
2022/10/26 00:47:54;;;;;;;;;;;14.50;89.70;;;;;;5052715;28;19940;-87
2022/10/26 00:50:24;;;;;;;;;;;14.50;89.60;;;;;;5064573;28;19951;-87
2022/10/26 00:52:51;;;;;;;;;;;14.50;89.60;;;;;;5072270;28;19963;-87
2022/10/26 00:55:20;;;;;;;;;;;14.50;89.80;;;;;;5072759;28;20035;-88
2022/10/26 00:57:46;;;;;;;;;;;14.40;89.40;;;;;;5072973;28;19964;-87
2022/10/26 01:00:12;;;;;;;;;;;14.20;88.70;;;;;;5061882;28;19948;-87
2022/10/26 01:02:38;;;;;;;;;;;14.10;89.70;;;;;;5052607;28;20019;-87
2022/10/26 01:05:05;;;;;;;;;;;14.10;90.30;;;;;;5052598;28;20402;-87
2022/10/26 01:07:30;;;;;;;;;;;14.20;90.70;;;;;;5052554;28;20024;-87
2022/10/26 01:09:56;;;;;;;;;;;14.10;90.00;;;;;;5057064;28;20105;-87
2022/10/26 01:12:21;;;;;;;;;;;14.00;90.30;;;;;;5052539;28;20023;-87
2022/10/26 01:14:47;;;;;;;;;;;14.00;91.10;;;;;;5052789;28;19953;-87
2022/10/26 01:17:37;;;;;;;;;;;14.00;91.70;;;;;;5052490;28;20305;-87
2022/10/26 01:20:18;;;;;;;;;;;14.10;91.70;;;;;;5061271;28;19962;-88
2022/10/26 01:22:58;;;;;;;;;;;14.40;91.30;;;;;;5073995;28;19945;-87
2022/10/26 01:25:33;;;;;;;;;;;14.40;91.00;;;;;;5076082;28;19963;-87
2022/10/26 01:28:00;;;;;;;;;;;14.30;90.70;;;;;;5076013;28;20424;-87
2022/10/26 01:30:26;;;;;;;;;;;14.20;90.90;;;;;;5063661;28;19971;-87
2022/10/26 01:32:54;;;;;;;;;;;14.20;90.90;;;;;;5056271;28;20049;-87
2022/10/26 01:35:22;;;;;;;;;;;14.30;90.90;;;;;;5055907;28;20414;-87
2022/10/26 01:37:55;;;;;;;;;;;14.20;91.00;;;;;;5055953;28;19938;-87
2022/10/26 01:40:24;;;;;;;;;;;14.20;91.10;;;;;;5064957;28;20400;-87
2022/10/26 01:42:52;;;;;;;;;;;14.30;91.20;;;;;;5074533;28;19995;-87
2022/10/26 01:45:18;;;;;;;;;;;14.30;90.90;;;;;;5075769;28;20041;-87
2022/10/26 01:47:45;;;;;;;;;;;14.30;90.90;;;;;;5075766;28;20391;-87
2022/10/26 01:50:11;;;;;;;;;;;14.40;90.70;;;;;;5066135;28;20096;-87
2022/10/26 01:52:37;;;;;;;;;;;14.40;90.50;;;;;;5055452;28;20432;-87
2022/10/26 01:55:04;;;;;;;;;;;14.60;90.40;;;;;;5055544;28;19934;-87
2022/10/26 01:57:32;;;;;;;;;;;14.60;90.10;;;;;;5055457;28;19954;-87
2022/10/26 02:00:01;;;;;;;;;;;14.70;89.90;;;;;;5061216;28;19949;-87
2022/10/26 02:02:32;;;;;;;;;;;14.70;90.00;;;;;;5075430;28;20385;-88
2022/10/26 02:05:00;;;;;;;;;;;14.80;89.80;;;;;;5075354;28;20310;-87
2022/10/26 02:07:45;;;;;;;;;;;14.80;89.40;;;;;;5075383;28;19938;-87
2022/10/26 02:10:22;;;;;;;;;;;14.90;89.20;;;;;;5065977;28;19988;-87
2022/10/26 02:12:55;;;;;;;;;;;14.90;89.10;;;;;;5055122;28;19968;-88
2022/10/26 02:15:21;;;;;;;;;;;14.90;88.90;;;;;;5055188;28;20376;-88
2022/10/26 02:17:50;;;;;;;;;;;14.90;89.10;;;;;;5055139;28;20394;-87
2022/10/26 02:20:27;;;;;;;;;;;14.80;89.10;;;;;;5064419;28;19997;-87
2022/10/26 02:22:54;;;;;;;;;;;14.80;89.20;;;;;;5075072;28;20045;-88
2022/10/26 02:25:22;;;;;;;;;;;14.80;89.20;;;;;;5075070;28;19941;-87
2022/10/26 02:27:49;;;;;;;;;;;14.90;89.10;;;;;;5075035;28;19942;-87
2022/10/26 02:30:16;;;;;;;;;;;14.80;88.90;;;;;;5065320;28;19984;-87
2022/10/26 02:32:44;;;;;;;;;;;14.90;88.80;;;;;;5054860;28;20312;-87
2022/10/26 02:35:11;;;;;;;;;;;14.80;88.80;;;;;;5053659;28;20006;-87
2022/10/26 02:37:37;;;;;;;;;;;14.80;88.90;;;;;;5054826;28;19946;-87
2022/10/26 02:40:05;;;;;;;;;;;14.80;88.90;;;;;;5061671;28;19948;-87
2022/10/26 02:42:30;;;;;;;;;;;14.70;88.80;;;;;;5073302;28;19943;-87
2022/10/26 02:45:01;;;;;;;;;;;14.70;88.80;;;;;;5074671;28;19963;-87
2022/10/26 02:47:27;;;;;;;;;;;14.60;88.70;;;;;;5074590;28;19937;-87
2022/10/26 02:49:53;;;;;;;;;;;14.40;88.50;;;;;;5067418;28;19963;-87
2022/10/26 02:52:27;;;;;;;;;;;14.30;89.00;;;;;;5054324;28;19976;-87
2022/10/26 02:55:01;;;;;;;;;;;14.30;89.80;;;;;;5054117;28;20328;-87
2022/10/26 02:57:38;;;;;;;;;;;14.30;89.90;;;;;;5054720;28;20031;-87
2022/10/26 03:00:05;;;;;;;;;;;14.30;89.90;;;;;;5054442;28;19993;-87
2022/10/26 03:02:30;;;;;;;;;;;14.30;90.00;;;;;;5054227;28;19941;-87
2022/10/26 03:05:05;;;;;;;;;;;14.40;90.10;;;;;;5054262;28;19939;-87
2022/10/26 03:07:30;;;;;;;;;;;14.40;90.00;;;;;;5054174;28;20483;-87
2022/10/26 03:09:56;;;;;;;;;;;14.30;90.30;;;;;;5059155;28;20050;-87
2022/10/26 03:12:21;;;;;;;;;;;14.20;90.50;;;;;;5074336;28;19978;-87
2022/10/26 03:14:47;;;;;;;;;;;14.20;90.60;;;;;;5074047;28;20030;-87
2022/10/26 03:17:12;;;;;;;;;;;14.20;90.70;;;;;;5072677;28;19969;-87
2022/10/26 03:19:38;;;;;;;;;;;14.10;90.90;;;;;;5071138;28;20053;-87
2022/10/26 03:22:03;;;;;;;;;;;14.10;91.10;;;;;;5054179;28;19943;-87
2022/10/26 03:24:29;;;;;;;;;;;14.00;91.40;;;;;;5053887;28;19946;-87
2022/10/26 03:26:54;;;;;;;;;;;14.10;91.70;;;;;;5054348;28;19953;-87
2022/10/26 03:29:20;;;;;;;;;;;14.10;91.80;;;;;;5053509;28;19981;-87
2022/10/26 03:31:45;;;;;;;;;;;14.10;91.90;;;;;;5053713;28;20037;-88
2022/10/26 03:34:11;;;;;;;;;;;14.20;91.70;;;;;;5053679;28;19939;-87
2022/10/26 03:36:36;;;;;;;;;;;14.20;91.70;;;;;;5053711;28;19991;-88
2022/10/26 03:39:02;;;;;;;;;;;14.30;91.80;;;;;;5073620;28;20035;-87
2022/10/26 03:41:27;;;;;;;;;;;14.40;91.60;;;;;;5073551;28;19940;-87
2022/10/26 03:43:53;;;;;;;;;;;14.40;91.20;;;;;;5073493;28;19939;-88
2022/10/26 03:46:19;;;;;;;;;;;14.40;91.00;;;;;;5073176;28;19943;-87
2022/10/26 03:48:44;;;;;;;;;;;14.50;90.70;;;;;;5064021;28;19968;-88
2022/10/26 03:51:10;;;;;;;;;;;14.60;90.30;;;;;;5073204;28;19963;-88
2022/10/26 03:53:35;;;;;;;;;;;14.60;90.30;;;;;;5073342;28;19943;-87
2022/10/26 03:56:01;;;;;;;;;;;14.60;90.30;;;;;;5073345;28;19950;-87
2022/10/26 03:58:26;;;;;;;;;;;14.50;90.00;;;;;;5058268;28;20036;-88
2022/10/26 04:00:52;;;;;;;;;;;14.40;89.80;;;;;;5053272;28;19978;-86
2022/10/26 04:03:17;;;;;;;;;;;14.10;90.00;;;;;;5053167;28;19944;-87
2022/10/26 04:05:43;;;;;;;;;;;14.00;91.00;;;;;;5051908;28;19949;-87
2022/10/26 04:08:08;;;;;;;;;;;13.90;91.60;;;;;;5064993;28;19945;-87
2022/10/26 04:10:34;;;;;;;;;;;14.00;91.80;;;;;;5073173;28;19937;-88
2022/10/26 04:13:00;;;;;;;;;;;14.10;91.80;;;;;;5073165;28;19941;-87
2022/10/26 04:15:26;;;;;;;;;;;14.20;91.80;;;;;;5069609;28;20410;-88
2022/10/26 04:17:58;;;;;;;;;;;14.30;91.70;;;;;;5053082;28;19939;-88
2022/10/26 04:20:24;;;;;;;;;;;14.30;91.70;;;;;;5053026;28;19993;-88
2022/10/26 04:23:00;;;;;;;;;;;14.40;91.40;;;;;;5053545;28;19969;-88
2022/10/26 04:25:26;;;;;;;;;;;14.50;91.10;;;;;;5056080;28;19939;-87
2022/10/26 04:27:51;;;;;;;;;;;14.40;90.90;;;;;;5073016;28;20337;-88
2022/10/26 04:30:17;;;;;;;;;;;14.40;90.90;;;;;;5072805;28;19975;-88
2022/10/26 04:32:43;;;;;;;;;;;14.50;90.90;;;;;;5072936;28;19937;-88
2022/10/26 04:35:08;;;;;;;;;;;14.40;90.80;;;;;;5072133;28;19948;-88
2022/10/26 04:37:34;;;;;;;;;;;14.40;90.70;;;;;;5068432;28;19951;-88
2022/10/26 04:40:00;;;;;;;;;;;14.30;90.60;;;;;;5072915;28;19940;-87
2022/10/26 04:42:25;;;;;;;;;;;14.30;90.60;;;;;;5072854;28;20030;-87
2022/10/26 04:44:51;;;;;;;;;;;14.10;90.50;;;;;;5072884;28;19937;-87
2022/10/26 04:47:16;;;;;;;;;;;14.10;90.80;;;;;;5054436;28;19946;-87
2022/10/26 04:49:41;;;;;;;;;;;14.00;91.00;;;;;;5052702;28;19962;-87
2022/10/26 04:52:07;;;;;;;;;;;14.10;91.30;;;;;;5052520;28;19953;-87
2022/10/26 04:54:33;;;;;;;;;;;14.10;91.20;;;;;;5052729;28;19941;-87
2022/10/26 04:56:58;;;;;;;;;;;14.10;91.20;;;;;;5054602;28;20382;-87
2022/10/26 04:59:25;;;;;;;;;;;14.10;91.10;;;;;;5055808;28;20425;-88
2022/10/26 05:01:50;;;;;;;;;;;14.00;91.00;;;;;;5056479;28;20395;-87
2022/10/26 05:04:16;;;;;;;;;;;14.10;91.10;;;;;;5056145;28;19945;-87
2022/10/26 05:06:42;;;;;;;;;;;14.20;91.00;;;;;;5068743;28;20536;-87
2022/10/26 05:09:07;;;;;;;;;;;14.20;90.80;;;;;;5076389;28;19956;-87
2022/10/26 05:11:33;;;;;;;;;;;14.10;90.60;;;;;;5076388;28;20032;-87
2022/10/26 05:13:58;;;;;;;;;;;14.10;90.80;;;;;;5068654;28;19942;-87
2022/10/26 05:16:24;;;;;;;;;;;14.00;91.20;;;;;;5056447;28;19945;-87
2022/10/26 05:18:49;;;;;;;;;;;14.00;91.30;;;;;;5055750;28;19975;-87
2022/10/26 05:21:19;;;;;;;;;;;14.00;91.20;;;;;;5055700;28;19948;-87
2022/10/26 05:23:54;;;;;;;;;;;14.10;91.30;;;;;;5055471;28;20046;-87
2022/10/26 05:26:20;;;;;;;;;;;14.20;91.80;;;;;;5060825;28;19950;-86
2022/10/26 05:28:45;;;;;;;;;;;14.30;91.80;;;;;;5075353;28;20461;-87
2022/10/26 05:31:11;;;;;;;;;;;14.30;91.40;;;;;;5064255;28;19946;-87
2022/10/26 05:33:37;;;;;;;;;;;14.20;91.70;;;;;;5055064;28;19968;-86
2022/10/26 05:36:02;;;;;;;;;;;14.10;91.70;;;;;;5061816;28;19956;-86
2022/10/26 05:38:28;;;;;;;;;;;14.20;91.90;;;;;;5059078;28;19949;-87
2022/10/26 05:40:53;;;;;;;;;;;14.30;92.00;;;;;;5055129;28;19941;-87
2022/10/26 05:43:20;;;;;;;;;;;14.40;92.00;;;;;;5051216;28;19947;-87
2022/10/26 05:45:46;;;;;;;;;;;14.40;91.90;;;;;;5054091;28;19943;-87
2022/10/26 05:48:11;;;;;;;;;;;14.50;91.90;;;;;;5059546;28;20465;-87
2022/10/26 05:50:37;;;;;;;;;;;14.50;91.70;;;;;;5055160;28;20396;-87
2022/10/26 05:53:02;;;;;;;;;;;14.60;91.50;;;;;;5054656;28;20204;-87
2022/10/26 05:55:28;;;;;;;;;;;14.60;91.10;;;;;;5054256;28;19951;-87
2022/10/26 05:57:54;;;;;;;;;;;14.70;90.80;;;;;;5054045;28;20033;-87
2022/10/26 06:00:21;;;;;;;;;;;14.80;90.50;;;;;;5046927;28;19989;-87
2022/10/26 06:03:00;;;;;;;;;;;14.80;90.50;;;;;;5053396;28;20005;-87
2022/10/26 06:05:27;;;;;;;;;;;14.90;90.60;;;;;;5050672;28;19946;-87
2022/10/26 06:07:53;;;;;;;;;;;14.80;90.60;;;;;;5050409;28;19949;-88
2022/10/26 06:10:19;;;;;;;;;;;14.80;90.80;;;;;;5056214;28;20053;-89
2022/10/26 06:12:44;;;;;;;;;;;14.90;90.70;;;;;;5044361;28;19972;-89
2022/10/26 06:15:20;;;;;;;;;;;14.90;90.60;;;;;;5053496;28;19948;-88
2022/10/26 06:17:52;;;;;;;;;;;15.00;90.20;;;;;;5047000;28;19976;-88
2022/10/26 06:20:27;;;;;;;;;;;15.00;90.30;;;;;;5046674;28;20035;-88
2022/10/26 06:22:53;;;;;;;;;;;15.10;90.40;;;;;;5047274;28;20027;-88
2022/10/26 06:25:48;;;;;;;;;;;15.00;90.40;;;;;;5052428;28;20040;-88
2022/10/26 06:28:13;;;;;;;;;;;15.10;90.60;;;;;;5046739;22;20407;-88
2022/10/26 06:30:39;;;;;;;;;;;15.10;90.60;;;;;;5063243;28;19950;-89
2022/10/26 06:33:05;;;;;;;;;;;15.10;90.70;;;;;;5069169;28;20137;-88
2022/10/26 06:35:42;;;;;;;;;;;15.10;90.70;;;;;;5061728;28;20046;-88
2022/10/26 06:38:12;;;;;;;;;;;15.10;90.80;;;;;;5067017;28;19953;-88
2022/10/26 06:40:39;;;;;;;;;;;15.10;91.10;;;;;;5066604;28;20283;-88
2022/10/26 06:43:11;;;;;;;;;;;15.10;91.10;;;;;;5063297;28;19993;-88
2022/10/26 06:45:37;;;;;;;;;;;15.10;90.90;;;;;;5066840;28;19942;-88
2022/10/26 06:48:08;;;;;;;;;;;15.10;90.70;;;;;;5069427;28;19940;-88
2022/10/26 06:50:41;;;;;;;;;;;15.10;91.30;;;;;;5071117;28;20118;-88
2022/10/26 06:53:26;;;;;;;;;;;15.10;91.60;;;;;;5037714;28;19941;-88
2022/10/26 06:55:52;;;;;;;;;;;15.10;91.70;;;;;;5050704;28;19940;-88
2022/10/26 06:58:22;;;;;;;;;;;15.10;91.80;;;;;;5039605;28;20384;-88
2022/10/26 07:00:49;;;;;;;;;;;15.10;91.50;;;;;;5052649;28;19953;-88
2022/10/26 07:03:15;;;;;;;;;;;15.20;91.20;;;;;;5048120;28;19946;-89
2022/10/26 07:05:41;;;;;;;;;;;15.30;90.80;;;;;;5050039;28;20416;-88
2022/10/26 07:08:07;;;;;;;;;;;15.30;90.50;;;;;;5040503;28;19951;-88
2022/10/26 07:10:34;;;;;;;;;;;15.40;90.20;;;;;;5045842;28;20367;-88
2022/10/26 07:12:59;;;;;;;;;;;15.50;89.60;;;;;;5051495;28;19943;-88
2022/10/26 07:15:25;;;;;;;;;;;15.60;89.30;;;;;;5045488;28;19943;-89
2022/10/26 07:17:51;;;;;;;;;;;15.60;89.50;;;;;;5049334;28;19992;-88
2022/10/26 07:20:17;;;;;;;;;;;15.60;89.90;;;;;;5049304;28;19944;-88
2022/10/26 07:22:43;;;;;;;;;;;15.70;90.30;;;;;;5049617;28;20051;-88
2022/10/26 07:25:09;;;;;;;;;;;15.70;90.50;;;;;;5049567;28;20426;-87
2022/10/26 07:27:34;;;;;;;;;;;15.80;90.30;;;;;;5050457;28;20450;-87
2022/10/26 07:30:00;;;;;;;;;;;15.80;89.90;;;;;;5048659;28;19972;-88
2022/10/26 07:32:26;;;;;;;;;;;15.90;90.20;;;;;;5047534;28;19949;-88
2022/10/26 07:34:51;;;;;;;;;;;15.80;90.80;;;;;;5042643;28;19948;-88
2022/10/26 07:37:17;;;;;;;;;;;15.90;90.90;;;;;;5046420;28;20030;-86
2022/10/26 07:39:42;;;;;;;;;;;15.90;90.20;;;;;;5049878;28;20043;-86
2022/10/26 07:42:08;;;;;;;;;;;16.00;90.50;;;;;;5049076;28;19946;-86
2022/10/26 07:44:34;;;;;;;;;;;16.00;90.40;;;;;;5045994;28;19973;-87
2022/10/26 07:46:59;;;;;;;;;;;16.10;90.50;;;;;;5051208;28;19943;-87
2022/10/26 07:49:25;;;;;;;;;;;16.10;89.70;;;;;;5051200;28;19975;-87
2022/10/26 07:51:50;;;;;;;;;;;16.30;88.60;;;;;;5048252;28;19955;-87
2022/10/26 07:54:16;;;;;;;;;;;16.30;88.40;;;;;;5036357;28;19944;-86
2022/10/26 07:56:41;;;;;;;;;;;16.40;88.60;;;;;;5053398;28;19937;-87
2022/10/26 07:59:07;;;;;;;;;;;16.60;88.20;;;;;;5051314;28;19945;-87
2022/10/26 08:01:32;;;;;;;;;;;16.80;87.90;;;;;;5051598;28;20294;-87
2022/10/26 08:03:58;;;;;;;;;;;17.00;87.30;;;;;;5051811;28;19946;-87
2022/10/26 08:06:23;;;;;;;;;;;16.90;85.90;;;;;;5050785;28;19940;-87
2022/10/26 08:08:50;;;;;;;;;;;16.90;87.00;;;;;;5048526;28;19964;-87
2022/10/26 08:11:16;;;;;;;;;;;16.90;86.40;;;;;;5040141;28;20386;-87
2022/10/26 08:13:42;;;;;;;;;;;17.00;85.90;;;;;;5040122;28;19945;-87
2022/10/26 08:16:07;;;;;;;;;;;17.10;85.20;;;;;;5044690;28;19954;-87
2022/10/26 08:18:33;;;;;;;;;;;17.30;83.40;;;;;;5035116;28;19944;-88
2022/10/26 08:21:06;;;;;;;;;;;17.40;83.10;;;;;;5040914;28;19949;-88
2022/10/26 08:23:32;;;;;;;;;;;17.60;83.00;;;;;;5044951;28;19955;-87
2022/10/26 08:26:01;;;;;;;;;;;17.60;83.70;;;;;;5042363;28;20001;-87
2022/10/26 08:28:27;;;;;;;;;;;17.60;83.90;;;;;;5048694;28;20392;-87
2022/10/26 08:30:53;;;;;;;;;;;17.60;84.30;;;;;;5051790;28;20403;-88
2022/10/26 08:33:18;;;;;;;;;;;17.50;84.60;;;;;;5056007;28;19939;-88
2022/10/26 08:35:44;;;;;;;;;;;17.60;85.00;;;;;;5045199;28;19953;-88
2022/10/26 08:38:09;;;;;;;;;;;17.70;84.70;;;;;;5051685;28;19945;-87
2022/10/26 08:40:36;;;;;;;;;;;17.80;83.90;;;;;;5047668;28;19945;-88
2022/10/26 08:43:11;;;;;;;;;;;17.80;84.60;;;;;;5051875;28;20416;-87
2022/10/26 08:45:40;;;;;;;;;;;17.80;82.90;;;;;;5048807;28;19977;-87
2022/10/26 08:48:11;;;;;;;;;;;17.80;82.50;;;;;;5051740;28;20425;-88
2022/10/26 08:50:40;;;;;;;;;;;17.80;83.00;;;;;;5055971;28;19981;-88
2022/10/26 08:53:17;;;;;;;;;;;17.80;83.40;;;;;;5054618;28;19946;-88
2022/10/26 08:56:01;;;;;;;;;;;17.90;83.70;;;;;;5048487;28;19943;-88
2022/10/26 08:58:29;;;;;;;;;;;18.00;83.30;;;;;;5051819;28;19950;-88
2022/10/26 09:00:54;;;;;;;;;;;18.10;83.20;;;;;;5053706;28;20412;-88
2022/10/26 09:03:20;;;;;;;;;;;18.20;82.00;;;;;;5049676;28;19944;-88
2022/10/26 09:06:08;;;;;;;;;;;18.30;82.30;;;;;;5047095;28;19952;-88
2022/10/26 09:08:40;;;;;;;;;;;18.40;82.40;;;;;;5003974;28;19966;-88
2022/10/26 09:11:18;;;;;;;;;;;18.50;81.60;;;;;;5052023;28;20489;-88
2022/10/26 09:13:47;;;;;;;;;;;18.60;81.00;;;;;;5052086;28;19951;-88
2022/10/26 09:16:18;;;;;;;;;;;18.60;81.40;;;;;;5051516;28;19942;-89
2022/10/26 09:19:02;;;;;;;;;;;18.70;80.70;;;;;;5050690;28;20448;-88
2022/10/26 09:21:30;;;;;;;;;;;18.80;81.40;;;;;;5050172;28;19958;-88
2022/10/26 09:24:34;;;;;;;;;;;18.90;80.70;;;;;;5053690;28;19989;-88
2022/10/26 09:27:08;;;;;;;;;;;19.00;81.00;;;;;;4972618;28;19952;-89
2022/10/26 09:29:38;;;;;;;;;;;19.00;79.80;;;;;;4971581;28;19970;-89
2022/10/26 09:32:05;;;;;;;;;;;19.10;80.00;;;;;;5014344;28;19945;-89
2022/10/26 09:34:40;;;;;;;;;;;19.20;80.50;;;;;;5050214;28;19949;-88
2022/10/26 09:37:20;;;;;;;;;;;19.10;80.80;;;;;;5048558;28;19948;-89
2022/10/26 09:39:49;;;;;;;;;;;19.20;80.40;;;;;;5035465;28;19948;-89
2022/10/26 09:42:20;;;;;;;;;;;19.20;80.20;;;;;;5051900;28;19959;-89
2022/10/26 09:44:56;;;;;;;;;;;19.30;79.90;;;;;;5034279;28;20394;-89
2022/10/26 09:47:35;;;;;;;;;;;19.40;81.10;;;;;;5035731;28;20392;-88
2022/10/26 09:50:21;;;;;;;;;;;19.50;79.70;;;;;;5051243;28;19966;-89
2022/10/26 09:52:47;;;;;;;;;;;19.70;80.00;;;;;;5019263;28;19967;-89
2022/10/26 09:55:12;;;;;;;;;;;19.80;78.40;;;;;;5051914;28;19948;-89
2022/10/26 09:57:39;;;;;;;;;;;19.80;77.30;;;;;;5051973;28;19950;-88
2022/10/26 10:00:05;;;;;;;;;;;19.90;77.70;;;;;;5045111;28;19955;-89
2022/10/26 10:02:38;;;;;;;;;;;19.90;77.30;;;;;;5052976;28;19949;-89
2022/10/26 10:05:21;;;;;;;;;;;20.00;77.50;;;;;;5049070;28;20306;-89
2022/10/26 10:07:47;;;;;;;;;;;20.00;77.10;;;;;;5055073;28;19946;-89
2022/10/26 10:10:16;;;;;;;;;;;20.00;76.30;;;;;;5054895;28;19958;-89
2022/10/26 10:12:42;;;;;;;;;;;19.90;76.20;;;;;;5052863;28;19955;-88
2022/10/26 10:15:21;;;;;;;;;;;19.80;77.80;;;;;;5054558;28;19940;-88
2022/10/26 10:17:48;;;;;;;;;;;19.90;77.30;;;;;;5054856;28;19989;-88
2022/10/26 10:20:17;;;;;;;;;;;20.00;77.40;;;;;;5054172;28;20328;-89
2022/10/26 10:22:53;;;;;;;;;;;20.00;76.80;;;;;;5053241;28;19991;-89
2022/10/26 10:25:30;;;;;;;;;;;20.20;76.60;;;;;;5054426;28;19956;-89
2022/10/26 10:27:56;;;;;;;;;;;20.20;76.20;;;;;;5054676;28;19982;-88
2022/10/26 10:30:26;;;;;;;;;;;20.20;76.00;;;;;;5054000;28;20365;-88
2022/10/26 10:33:09;;;;;;;;;;;20.20;76.50;;;;;;5039673;28;19954;-88
2022/10/26 10:35:35;;;;;;;;;;;20.30;75.80;;;;;;5045767;28;19992;-88
2022/10/26 10:38:01;;;;;;;;;;;20.40;75.00;;;;;;5054849;28;19948;-89
2022/10/26 10:40:30;;;;;;;;;;;20.50;74.90;;;;;;5054760;28;19990;-88
2022/10/26 10:43:08;;;;;;;;;;;20.70;75.00;;;;;;5054574;28;20044;-88
2022/10/26 10:45:35;;;;;;;;;;;20.80;73.80;;;;;;5054672;28;20301;-89
2022/10/26 10:48:04;;;;;;;;;;;20.80;73.20;;;;;;5054660;28;19942;-88
2022/10/26 10:50:31;;;;;;;;;;;20.90;72.70;;;;;;5036576;28;19967;-88
2022/10/26 10:53:13;;;;;;;;;;;20.90;73.20;;;;;;5054101;28;20003;-88
2022/10/26 10:55:41;;;;;;;;;;;21.00;72.60;;;;;;5053481;28;20435;-88
2022/10/26 10:58:14;;;;;;;;;;;21.10;71.30;;;;;;5054424;28;19939;-88
2022/10/26 11:00:42;;;;;;;;;;;21.30;70.40;;;;;;5054334;28;19936;-88
2022/10/26 11:03:07;;;;;;;;;;;21.30;69.30;;;;;;5053725;28;19980;-89
2022/10/26 11:05:52;;;;;;;;;;;21.60;69.70;;;;;;5053860;28;19986;-88
2022/10/26 11:08:35;;;;;;;;;;;21.90;69.10;;;;;;5053862;28;20090;-89
2022/10/26 11:11:10;;;;;;;;;;;22.20;68.70;;;;;;5054230;28;19938;-88
2022/10/26 11:13:57;;;;;;;;;;;22.30;68.50;;;;;;5053497;28;19959;-88
2022/10/26 11:16:31;;;;;;;;;;;22.40;68.00;;;;;;5054315;28;19955;-88
2022/10/26 11:19:05;;;;;;;;;;;22.30;67.40;;;;;;5053343;28;19953;-88
2022/10/26 11:21:33;;;;;;;;;;;22.50;67.60;;;;;;5053413;28;19944;-88
2022/10/26 11:24:19;;;;;;;;;;;22.50;69.00;;;;;;5052405;28;19949;-89
2022/10/26 11:26:54;;;;;;;;;;;22.50;68.80;;;;;;5051431;28;19951;-88
2022/10/26 11:29:24;;;;;;;;;;;22.30;68.10;;;;;;5051357;28;19973;-89
2022/10/26 11:31:53;;;;;;;;;;;22.60;67.50;;;;;;5045079;28;19959;-89
2022/10/26 11:34:23;;;;;;;;;;;22.90;66.80;;;;;;5047048;28;19956;-89
2022/10/26 11:36:52;;;;;;;;;;;23.10;66.80;;;;;;5051056;28;19941;-89
2022/10/26 11:39:22;;;;;;;;;;;23.50;64.70;;;;;;5043328;28;19947;-89
2022/10/26 11:41:54;;;;;;;;;;;23.70;63.90;;;;;;5029332;28;21707;-89
2022/10/26 11:44:38;;;;;;;;;;;23.90;63.90;;;;;;5051708;28;19962;-90
2022/10/26 11:47:13;;;;;;;;;;;23.90;63.40;;;;;;5023025;28;20411;-90
2022/10/26 11:49:39;;;;;;;;;;;24.40;62.40;;;;;;5017976;28;20350;-90
2022/10/26 11:52:04;;;;;;;;;;;25.20;60.00;;;;;;5048270;28;19972;-91
2022/10/26 11:54:30;;;;;;;;;;;26.20;56.50;;;;;;5048039;28;19950;-91
2022/10/26 11:56:56;;;;;;;;;;;27.00;54.60;;;;;;5050457;28;19990;-90
2022/10/26 11:59:23;;;;;;;;;;;27.40;52.20;;;;;;5045249;28;20513;-90
2022/10/26 12:01:51;;;;;;;;;;;27.70;51.50;;;;;;5045443;28;19944;-90
2022/10/26 12:04:19;;;;;;;;;;;27.80;51.60;;;;;;5040830;28;19942;-90
2022/10/26 12:06:46;;;;;;;;;;;28.10;51.20;;;;;;5045936;28;19969;-90
2022/10/26 12:09:15;;;;;;;;;;;28.70;50.40;;;;;;5043530;28;19969;-90
2022/10/26 12:11:41;;;;;;;;;;;28.50;49.10;;;;;;5045410;28;19948;-90
2022/10/26 12:14:25;;;;;;;;;;;28.40;49.40;;;;;;5045098;28;19949;-90
2022/10/26 12:16:55;;;;;;;;;;;28.90;48.80;;;;;;5043865;28;19940;-90
2022/10/26 12:19:25;;;;;;;;;;;28.90;48.10;;;;;;5039282;28;19952;-91
2022/10/26 12:21:51;;;;;;;;;;;29.50;46.90;;;;;;5046500;28;19943;-90
2022/10/26 12:24:25;;;;;;;;;;;29.40;45.90;;;;;;5037697;28;19944;-91
2022/10/26 12:26:53;;;;;;;;;;;29.20;47.40;;;;;;5051539;28;19938;-90
2022/10/26 12:29:30;;;;;;;;;;;29.60;46.40;;;;;;5045524;28;20511;-90
2022/10/26 12:31:56;;;;;;;;;;;30.00;45.60;;;;;;5049472;28;19978;-90
2022/10/26 12:34:30;;;;;;;;;;;30.10;45.10;;;;;;5051259;28;19986;-90
2022/10/26 12:36:56;;;;;;;;;;;30.10;45.20;;;;;;5042637;28;19939;-90
2022/10/26 12:39:25;;;;;;;;;;;30.00;45.40;;;;;;5051209;28;20052;-91
2022/10/26 12:41:58;;;;;;;;;;;30.20;45.10;;;;;;5052915;28;19947;-91
2022/10/26 12:44:37;;;;;;;;;;;30.20;44.90;;;;;;5041884;28;19939;-90
2022/10/26 12:47:03;;;;;;;;;;;29.90;45.50;;;;;;5045450;28;19943;-90
2022/10/26 12:49:48;;;;;;;;;;;29.90;45.00;;;;;;5043827;28;19966;-90
2022/10/26 12:52:17;;;;;;;;;;;30.20;44.80;;;;;;5041398;28;19955;-90
2022/10/26 12:54:48;;;;;;;;;;;30.50;44.70;;;;;;5041796;28;19954;-90
2022/10/26 12:57:21;;;;;;;;;;;30.60;44.50;;;;;;5040985;28;20001;-90
2022/10/26 12:59:50;;;;;;;;;;;30.00;45.70;;;;;;5041672;28;19945;-91
2022/10/26 13:02:34;;;;;;;;;;;29.80;45.80;;;;;;5042151;28;19949;-91
2022/10/26 13:05:23;;;;;;;;;;;30.30;45.40;;;;;;5044263;28;19993;-91
2022/10/26 13:07:49;;;;;;;;;;;29.90;45.10;;;;;;5004030;28;19943;-91
2022/10/26 13:10:20;;;;;;;;;;;30.20;45.20;;;;;;5044633;28;19965;-91
2022/10/26 13:12:48;;;;;;;;;;;30.70;44.60;;;;;;5042578;28;19997;-90
2022/10/26 13:15:19;;;;;;;;;;;31.20;42.90;;;;;;5022103;28;19950;-90
2022/10/26 13:17:52;;;;;;;;;;;31.30;42.40;;;;;;5043963;28;19946;-91
2022/10/26 13:20:18;;;;;;;;;;;31.40;42.10;;;;;;5045468;28;19942;-90
2022/10/26 13:22:45;;;;;;;;;;;31.20;42.60;;;;;;5042669;28;19985;-90
2022/10/26 13:25:22;;;;;;;;;;;31.20;42.50;;;;;;5045375;28;19956;-90
2022/10/26 13:27:57;;;;;;;;;;;30.50;43.80;;;;;;5046721;28;19939;-90
2022/10/26 13:30:32;;;;;;;;;;;30.10;44.50;;;;;;5042885;28;19974;-91
2022/10/26 13:32:58;;;;;;;;;;;30.00;45.20;;;;;;5044373;28;20001;-91
2022/10/26 13:35:25;;;;;;;;;;;30.50;44.50;;;;;;5043952;28;19975;-91
2022/10/26 13:37:52;;;;;;;;;;;29.50;46.10;;;;;;5049219;28;19947;-90
2022/10/26 13:40:20;;;;;;;;;;;28.60;48.10;;;;;;5054229;28;19954;-90
2022/10/26 13:42:48;;;;;;;;;;;28.50;48.90;;;;;;5054070;28;20294;-90
2022/10/26 13:45:22;;;;;;;;;;;28.20;49.30;;;;;;5051474;28;19944;-90
2022/10/26 13:48:00;;;;;;;;;;;28.00;50.10;;;;;;5050093;28;19948;-91
2022/10/26 13:50:27;;;;;;;;;;;27.90;50.90;;;;;;5053872;28;20014;-92
2022/10/26 13:52:55;;;;;;;;;;;28.20;50.30;;;;;;5052098;28;19959;-91
2022/10/26 13:55:32;;;;;;;;;;;28.30;49.70;;;;;;5050581;28;20004;-91
2022/10/26 13:57:58;;;;;;;;;;;28.60;48.80;;;;;;5052392;28;19951;-91
2022/10/26 14:00:23;;;;;;;;;;;28.50;48.90;;;;;;5051293;28;19953;-91
2022/10/26 14:02:49;;;;;;;;;;;28.50;49.40;;;;;;5052046;28;19960;-91
2022/10/26 14:05:15;;;;;;;;;;;28.70;48.80;;;;;;5049924;28;19959;-91
2022/10/26 14:07:44;;;;;;;;;;;28.90;48.50;;;;;;5051938;28;19943;-91
2022/10/26 14:10:23;;;;;;;;;;;29.20;47.90;;;;;;5046911;28;19963;-91
2022/10/26 14:12:49;;;;;;;;;;;29.40;47.60;;;;;;5052328;28;20027;-91
2022/10/26 14:15:15;;;;;;;;;;;29.20;48.10;;;;;;5045362;28;21185;-91
2022/10/26 14:17:40;;;;;;;;;;;30.00;46.00;;;;;;5054612;28;19949;-90
2022/10/26 14:20:15;;;;;;;;;;;30.20;45.60;;;;;;5053724;28;20006;-90
2022/10/26 14:22:42;;;;;;;;;;;30.30;45.10;;;;;;5051572;28;19983;-91
2022/10/26 14:25:24;;;;;;;;;;;30.50;44.70;;;;;;5050885;28;20468;-90
2022/10/26 14:27:50;;;;;;;;;;;30.00;45.40;;;;;;5052239;28;20024;-91